Time;durP1;ratioP1;P1;durP2;ratioP2;P2;SDS_P1;SDS_P2;PMS_P1;PMS_P2;Temp;Humidity;BMP_temperature;BMP_pressure;BME280_temperature;BME280_humidity;BME280_pressure;Samples;Min_cycle;Max_cycle;Signal;HPM_P1;HPM_P2
2023/12/27 00:03:49;;;;;;;3.27;1.13;;;3.80;1.00;;;;;;9791006;30;20266;-84
2023/12/27 00:09:10;;;;;;;5.40;1.17;;;3.70;1.00;;;;;;9791733;30;20204;-81
2023/12/27 00:14:32;;;;;;;3.07;1.07;;;3.70;1.00;;;;;;9785710;30;20553;-81
2023/12/27 00:19:53;;;;;;;5.83;1.17;;;3.60;99.90;;;;;;9821944;30;20577;-85
2023/12/27 00:25:14;;;;;;;3.00;0.80;;;3.70;31.40;;;;;;9815144;30;20245;-86
2023/12/27 00:30:35;;;;;;;6.57;1.00;;;3.70;99.90;;;;;;9813603;30;20294;-84
2023/12/27 00:35:56;;;;;;;6.13;1.30;;;3.80;1.00;;;;;;9801238;30;20234;-82
2023/12/27 00:41:18;;;;;;;5.83;0.80;;;3.80;1.00;;;;;;9800548;30;20247;-80
2023/12/27 00:46:41;;;;;;;6.10;0.80;;;3.70;33.20;;;;;;9801608;30;20219;-80
2023/12/27 00:52:02;;;;;;;2.97;0.60;;;3.80;99.90;;;;;;9813435;30;20231;-87
2023/12/27 00:57:24;;;;;;;3.43;0.80;;;3.70;1.00;;;;;;9802139;30;20562;-81
2023/12/27 01:02:45;;;;;;;1.90;0.50;;;3.50;1.00;;;;;;9808336;30;20239;-81
2023/12/27 01:08:07;;;;;;;4.10;0.70;;;3.40;88.70;;;;;;9804789;30;20579;-78
2023/12/27 01:13:30;;;;;;;2.33;0.80;;;3.20;1.00;;;;;;9798998;30;20231;-88
2023/12/27 01:18:52;;;;;;;3.27;1.00;;;3.20;47.00;;;;;;9816517;30;20199;-86
2023/12/27 01:24:14;;;;;;;3.77;0.73;;;3.30;99.90;;;;;;9797944;30;20265;-81
2023/12/27 01:29:35;;;;;;;6.73;0.90;;;3.30;1.00;;;;;;9809759;30;20234;-81
2023/12/27 01:34:56;;;;;;;3.57;1.00;;;3.20;67.00;;;;;;9820772;30;20210;-78
2023/12/27 01:40:18;;;;;;;4.97;1.00;;;3.10;1.00;;;;;;9820567;30;20384;-82
2023/12/27 01:45:39;;;;;;;7.63;0.80;;;3.10;1.00;;;;;;9807755;30;20211;-80
2023/12/27 01:51:01;;;;;;;10.53;1.60;;;3.00;99.90;;;;;;9779104;30;20604;-81
2023/12/27 01:56:22;;;;;;;10.13;1.53;;;3.10;99.90;;;;;;9820248;30;20206;-82
2023/12/27 02:01:44;;;;;;;8.30;1.37;;;3.10;1.00;;;;;;9820011;30;20226;-79
2023/12/27 02:07:06;;;;;;;9.23;1.47;;;3.20;1.00;;;;;;9807253;30;20211;-81
2023/12/27 02:12:32;;;;;;;7.63;1.70;;;3.30;1.00;;;;;;9808125;30;20282;-79
2023/12/27 02:17:55;;;;;;;10.80;1.53;;;3.30;1.00;;;;;;9804984;30;20567;-86
2023/12/27 02:23:20;;;;;;;6.60;1.33;;;3.40;1.00;;;;;;9793395;30;20285;-83
2023/12/27 02:28:43;;;;;;;8.00;2.00;;;3.30;1.00;;;;;;9795000;30;20290;-79
2023/12/27 02:34:05;;;;;;;12.57;2.13;;;3.40;1.00;;;;;;9806806;30;20227;-85
2023/12/27 02:39:26;;;;;;;9.40;1.67;;;3.50;1.00;;;;;;9806442;30;20553;-82
2023/12/27 02:44:47;;;;;;;9.47;1.97;;;3.50;99.90;;;;;;9794341;30;20273;-80
2023/12/27 02:50:09;;;;;;;7.17;1.47;;;3.50;1.00;;;;;;9781646;30;20235;-85
2023/12/27 02:55:30;;;;;;;12.00;1.60;;;3.50;1.00;;;;;;9803307;30;20222;-86
2023/12/27 03:00:52;;;;;;;6.23;1.13;;;3.50;1.00;;;;;;9830075;30;20242;-82
2023/12/27 03:06:13;;;;;;;10.37;1.73;;;3.70;1.00;;;;;;9818993;30;20270;-85
2023/12/27 03:11:34;;;;;;;9.57;1.80;;;3.80;1.00;;;;;;9793535;30;20227;-82
2023/12/27 03:16:56;;;;;;;9.87;1.93;;;3.80;1.00;;;;;;9805026;30;20510;-87
2023/12/27 03:22:17;;;;;;;11.53;1.83;;;3.80;1.00;;;;;;9792608;30;20610;-82
2023/12/27 03:27:39;;;;;;;11.87;2.40;;;3.80;99.90;;;;;;9805726;30;20230;-88
2023/12/27 03:33:00;;;;;;;11.50;2.20;;;3.80;1.00;;;;;;9805047;30;20211;-82
2023/12/27 03:38:21;;;;;;;6.80;1.87;;;3.80;99.90;;;;;;9804857;30;20250;-81
2023/12/27 03:43:44;;;;;;;8.33;1.97;;;3.70;99.90;;;;;;9793015;30;20245;-88
2023/12/27 03:49:07;;;;;;;7.17;2.30;;;3.70;99.90;;;;;;9817455;30;20243;-88
2023/12/27 03:54:29;;;;;;;4.90;1.57;;;3.50;1.00;;;;;;9816590;30;20227;-89
2023/12/27 03:59:50;;;;;;;7.60;1.23;;;3.50;1.00;;;;;;9804223;30;20215;-79
2023/12/27 04:05:13;;;;;;;10.00;1.77;;;3.60;99.90;;;;;;9816987;30;20243;-80
2023/12/27 04:10:34;;;;;;;16.30;3.07;;;3.50;99.90;;;;;;9817818;30;20200;-88
2023/12/27 04:15:55;;;;;;;14.97;2.63;;;3.40;1.00;;;;;;9792314;30;20221;-82
2023/12/27 04:21:17;;;;;;;13.17;2.20;;;3.50;99.90;;;;;;9803641;30;20234;-81
2023/12/27 04:26:41;;;;;;;9.30;2.23;;;3.60;1.00;;;;;;9792048;30;20210;-82
2023/12/27 04:32:02;;;;;;;17.87;2.20;;;3.60;1.00;;;;;;9791736;30;20204;-80
2023/12/27 04:37:24;;;;;;;6.37;1.77;;;3.60;1.00;;;;;;9803755;30;20237;-80
2023/12/27 04:42:46;;;;;;;6.23;1.80;;;3.60;1.00;;;;;;9816226;30;20230;-81
2023/12/27 04:48:08;;;;;;;15.10;2.60;;;3.70;1.00;;;;;;9806620;30;20236;-81
2023/12/27 04:53:30;;;;;;;8.33;1.87;;;3.70;99.90;;;;;;9798038;30;20451;-83
2023/12/27 04:58:51;;;;;;;7.60;1.33;;;3.70;1.00;;;;;;9809655;30;20213;-82
2023/12/27 05:04:13;;;;;;;13.73;2.37;;;3.70;1.00;;;;;;9796721;30;20423;-81
2023/12/27 05:09:34;;;;;;;12.30;1.83;;;3.70;99.90;;;;;;9809683;30;20511;-86
2023/12/27 05:14:55;;;;;;;4.87;1.60;;;3.70;17.00;;;;;;9815146;30;20212;-84
2023/12/27 05:20:16;;;;;;;12.77;1.80;;;3.70;99.90;;;;;;9791004;30;20208;-81
2023/12/27 05:25:38;;;;;;;10.93;1.60;;;3.80;1.00;;;;;;9799105;30;20266;-80
2023/12/27 05:30:59;;;;;;;10.57;2.03;;;3.80;99.90;;;;;;9773400;30;20197;-88
2023/12/27 05:36:21;;;;;;;10.23;2.47;;;3.70;8.00;;;;;;9787057;30;20282;-81
2023/12/27 05:41:42;;;;;;;11.83;2.23;;;3.60;99.90;;;;;;9774699;30;20470;-88
2023/12/27 05:47:04;;;;;;;10.53;1.97;;;3.50;1.00;;;;;;9802173;30;20246;-83
2023/12/27 05:52:25;;;;;;;14.87;3.37;;;3.50;1.00;;;;;;9808429;30;20211;-84
2023/12/27 05:57:46;;;;;;;13.97;3.03;;;3.50;1.00;;;;;;9806669;30;20207;-84
2023/12/27 06:03:08;;;;;;;8.50;1.70;;;3.50;88.00;;;;;;9807659;30;20314;-83
2023/12/27 06:08:29;;;;;;;8.57;1.43;;;3.50;20.80;;;;;;9795319;30;20291;-82
2023/12/27 06:13:50;;;;;;;7.47;1.53;;;3.60;99.90;;;;;;9819016;30;20253;-80
2023/12/27 06:19:11;;;;;;;7.53;2.00;;;3.40;1.00;;;;;;9819416;30;20207;-80
2023/12/27 06:24:33;;;;;;;8.37;1.77;;;3.50;1.00;;;;;;9794335;30;20238;-80
2023/12/27 06:29:54;;;;;;;7.57;1.70;;;3.40;99.90;;;;;;9820180;30;20229;-80
2023/12/27 06:35:15;;;;;;;8.03;1.70;;;3.30;1.00;;;;;;9807170;30;20211;-90
2023/12/27 06:40:39;;;;;;;7.13;2.20;;;3.20;1.00;;;;;;9819388;30;20212;-89
2023/12/27 06:46:00;;;;;;;6.00;2.30;;;3.30;99.90;;;;;;9794041;30;20224;-83
2023/12/27 06:51:21;;;;;;;7.30;2.10;;;3.30;1.00;;;;;;9806266;30;20245;-85
2023/12/27 06:56:43;;;;;;;9.03;1.93;;;3.20;99.90;;;;;;9805645;30;20211;-91
2023/12/27 07:02:07;;;;;;;7.40;1.83;;;3.20;99.90;;;;;;9805619;30;20224;-87
2023/12/27 07:07:28;;;;;;;8.67;1.63;;;3.20;1.00;;;;;;9806070;30;20208;-89
2023/12/27 07:12:50;;;;;;;5.80;1.53;;;3.20;1.00;;;;;;9805675;30;20569;-86
2023/12/27 07:18:11;;;;;;;12.90;3.33;;;3.20;1.00;;;;;;9802252;30;20214;-91
2023/12/27 07:23:33;;;;;;;4.30;2.03;;;3.20;99.90;;;;;;9805725;30;20227;-89
2023/12/27 07:28:54;;;;;;;9.40;2.70;;;3.10;1.00;;;;;;9817643;30;20207;-86
2023/12/27 07:34:16;;;;;;;7.60;4.00;;;3.00;1.00;;;;;;9818163;30;20211;-80
2023/12/27 07:39:37;;;;;;;4.97;2.70;;;3.00;95.40;;;;;;9817418;30;20203;-79
2023/12/27 07:44:58;;;;;;;10.53;4.10;;;3.00;99.90;;;;;;9817697;30;20285;-87
2023/12/27 07:50:20;;;;;;;15.37;5.50;;;3.00;99.90;;;;;;9792903;30;20245;-87
2023/12/27 07:55:42;;;;;;;16.73;8.10;;;3.00;99.90;;;;;;9792382;30;20196;-90
2023/12/27 08:01:04;;;;;;;6.30;3.43;;;3.00;99.90;;;;;;9804268;30;20220;-90
2023/12/27 08:06:26;;;;;;;5.90;2.20;;;3.10;99.90;;;;;;9812383;30;20246;-91
2023/12/27 08:11:47;;;;;;;6.80;1.50;;;3.10;1.00;;;;;;9819637;30;20206;-85
2023/12/27 08:17:08;;;;;;;5.07;1.67;;;3.20;99.90;;;;;;9794225;30;20272;-90
2023/12/27 08:22:31;;;;;;;4.93;1.63;;;3.20;99.90;;;;;;9811726;30;20231;-87
2023/12/27 08:27:52;;;;;;;7.53;2.37;;;3.20;1.00;;;;;;9828482;30;20254;-82
2023/12/27 08:33:15;;;;;;;9.87;2.17;;;3.30;99.90;;;;;;9814968;30;20510;-80
2023/12/27 08:38:37;;;;;;;9.33;3.30;;;3.40;99.90;;;;;;9815388;30;20204;-82
2023/12/27 08:44:00;;;;;;;16.37;5.07;;;3.60;27.50;;;;;;9804094;30;20256;-88
2023/12/27 08:49:21;;;;;;;12.23;2.77;;;3.70;1.00;;;;;;9811131;30;20241;-88
2023/12/27 08:54:43;;;;;;;10.50;3.00;;;3.80;1.00;;;;;;9810653;30;20215;-89
2023/12/27 09:00:10;;;;;;;7.27;1.90;;;3.80;1.00;;;;;;9809696;30;20537;-89
2023/12/27 09:05:31;;;;;;;19.70;4.00;;;3.70;99.90;;;;;;9813957;30;20303;-80
2023/12/27 09:10:52;;;;;;;16.60;2.93;;;3.80;1.00;;;;;;9822323;30;20232;-80
2023/12/27 09:16:14;;;;;;;9.50;2.03;;;3.80;1.00;;;;;;9821695;30;20322;-85
2023/12/27 09:21:42;;;;;;;9.53;1.50;;;3.90;99.90;;;;;;9796762;30;20254;-89
2023/12/27 09:27:04;;;;;;;8.60;2.60;;;4.00;1.00;;;;;;9808264;30;20253;-81
2023/12/27 09:32:25;;;;;;;10.80;2.60;;;4.10;1.00;;;;;;9795751;30;20206;-87
2023/12/27 09:37:46;;;;;;;10.30;2.20;;;4.10;1.00;;;;;;9809061;30;20278;-83
2023/12/27 09:43:09;;;;;;;11.90;2.47;;;4.10;1.00;;;;;;9821122;30;20236;-88
2023/12/27 09:48:32;;;;;;;14.47;3.10;;;4.10;99.90;;;;;;9795601;30;20331;-85
2023/12/27 09:53:53;;;;;;;18.33;5.07;;;4.20;87.00;;;;;;9795995;30;20213;-86
2023/12/27 09:59:26;;;;;;;8.17;2.83;;;4.40;1.00;;;;;;9807074;30;20214;-90
2023/12/27 10:04:52;;;;;;;9.63;2.90;;;4.50;1.00;;;;;;9807998;30;20559;-81
2023/12/27 10:10:15;;;;;;;11.57;3.57;;;4.40;99.90;;;;;;9808168;30;20199;-80
2023/12/27 10:15:36;;;;;;;11.63;3.43;;;4.40;1.00;;;;;;9816903;30;20505;-86
2023/12/27 10:20:58;;;;;;;16.83;4.30;;;4.50;99.90;;;;;;9819650;30;20283;-80
2023/12/27 10:26:19;;;;;;;14.27;3.50;;;4.40;99.90;;;;;;9806493;30;20241;-81
2023/12/27 10:31:41;;;;;;;12.00;2.63;;;4.50;1.00;;;;;;9806661;30;20456;-82
2023/12/27 10:37:07;;;;;;;12.40;3.10;;;4.70;1.00;;;;;;9806691;30;20221;-81
2023/12/27 10:42:28;;;;;;;15.27;3.13;;;4.80;99.90;;;;;;9806205;30;20248;-82
2023/12/27 10:47:59;;;;;;;19.93;2.97;;;4.70;99.90;;;;;;9818115;30;20233;-83
2023/12/27 10:53:23;;;;;;;11.13;2.60;;;4.60;88.40;;;;;;9805956;30;20267;-81
2023/12/27 10:58:46;;;;;;;13.87;2.60;;;4.50;1.00;;;;;;9816443;30;20237;-84
2023/12/27 11:04:09;;;;;;;16.03;2.97;;;4.60;1.00;;;;;;9805637;30;20247;-83
2023/12/27 11:09:31;;;;;;;14.27;3.33;;;4.80;99.90;;;;;;9793607;30;20293;-81
2023/12/27 11:14:55;;;;;;;10.87;3.20;;;4.80;53.70;;;;;;9804906;30;20214;-80
2023/12/27 11:20:19;;;;;;;10.97;3.37;;;5.00;99.90;;;;;;9817759;30;20248;-81
2023/12/27 11:25:41;;;;;;;10.70;3.43;;;6.20;1.00;;;;;;9805007;30;20305;-86
2023/12/27 11:31:04;;;;;;;12.40;2.30;;;7.60;59.60;;;;;;9804476;30;20224;-82
2023/12/27 11:36:28;;;;;;;9.17;1.93;;;7.80;1.00;;;;;;9792921;30;20208;-83
2023/12/27 11:41:49;;;;;;;9.97;3.70;;;7.40;1.00;;;;;;9792805;30;20254;-79
2023/12/27 11:47:13;;;;;;;10.67;2.67;;;7.50;1.00;;;;;;9818123;30;20213;-85
2023/12/27 11:52:41;;;;;;;16.70;4.50;;;7.50;1.00;;;;;;9804905;30;20215;-84
2023/12/27 11:58:03;;;;;;;12.83;3.20;;;6.90;1.00;;;;;;9820760;30;20211;-80
2023/12/27 12:03:35;;;;;;;12.80;4.60;;;6.80;1.00;;;;;;9811806;30;20231;-81
2023/12/27 12:08:59;;;;;;;13.30;3.27;;;6.60;1.00;;;;;;9799349;30;20208;-84
2023/12/27 12:14:21;;;;;;;11.40;2.73;;;7.20;1.00;;;;;;9799722;30;20251;-88
2023/12/27 12:19:42;;;;;;;11.17;2.87;;;8.10;1.00;;;;;;9799314;30;20505;-81
2023/12/27 12:25:07;;;;;;;6.77;1.83;;;8.30;1.00;;;;;;9811394;30;20308;-85
2023/12/27 12:30:28;;;;;;;10.03;1.97;;;7.80;1.00;;;;;;9822686;30;20236;-81
2023/12/27 12:35:51;;;;;;;5.40;1.80;;;7.10;1.00;;;;;;9823204;30;20209;-81
2023/12/27 12:41:13;;;;;;;11.63;2.50;;;6.50;1.00;;;;;;9809244;30;20222;-89
2023/12/27 12:46:34;;;;;;;10.17;1.97;;;6.00;1.00;;;;;;9822775;30;20240;-83
2023/12/27 12:52:06;;;;;;;11.20;2.10;;;5.60;1.00;;;;;;9809909;30;20249;-81
2023/12/27 12:57:31;;;;;;;13.67;2.07;;;5.30;1.00;;;;;;9810002;30;20209;-91
2023/12/27 13:02:53;;;;;;;9.83;2.70;;;5.00;1.00;;;;;;9826545;30;20225;-81
2023/12/27 13:08:15;;;;;;;10.67;2.90;;;4.80;1.00;;;;;;9813822;30;20272;-81
2023/12/27 13:13:37;;;;;;;10.90;2.37;;;4.70;27.40;;;;;;9781232;30;20212;-80
2023/12/27 13:19:00;;;;;;;15.57;3.67;;;4.60;51.90;;;;;;9796760;30;20213;-80
2023/12/27 13:24:21;;;;;;;15.17;2.80;;;4.60;99.90;;;;;;9808641;30;20240;-80
2023/12/27 13:29:43;;;;;;;14.33;3.07;;;4.40;99.90;;;;;;9808906;30;20207;-80
2023/12/27 13:35:04;;;;;;;7.87;2.33;;;4.30;99.90;;;;;;9820672;30;20220;-81
2023/12/27 13:40:26;;;;;;;5.53;1.87;;;4.30;90.50;;;;;;9819788;30;20211;-80
2023/12/27 13:45:47;;;;;;;13.40;2.67;;;4.20;88.80;;;;;;9808238;30;20252;-82
2023/12/27 13:51:08;;;;;;;10.70;2.03;;;4.20;99.90;;;;;;9820149;30;20562;-81
2023/12/27 13:56:29;;;;;;;13.10;3.23;;;4.20;99.90;;;;;;9795152;30;20201;-82
2023/12/27 14:01:50;;;;;;;17.00;4.67;;;4.30;99.90;;;;;;9819607;30;20568;-80
2023/12/27 14:07:12;;;;;;;16.03;4.57;;;4.30;99.90;;;;;;9819652;30;20223;-82
2023/12/27 14:12:35;;;;;;;17.33;4.63;;;4.30;99.90;;;;;;9818391;30;20244;-83
2023/12/27 14:17:56;;;;;;;10.33;2.70;;;4.10;99.90;;;;;;9805771;30;20224;-81
2023/12/27 14:23:18;;;;;;;10.90;3.03;;;4.20;99.90;;;;;;9819303;30;20227;-80
2023/12/27 14:28:39;;;;;;;11.50;2.20;;;4.10;1.00;;;;;;9819579;30;20225;-85
2023/12/27 14:34:01;;;;;;;15.17;3.53;;;4.10;99.90;;;;;;9806707;30;20535;-85
2023/12/27 14:39:22;;;;;;;11.93;2.30;;;4.00;1.00;;;;;;9806773;30;20208;-91
2023/12/27 14:44:44;;;;;;;9.83;2.13;;;4.00;1.00;;;;;;9806278;30;20518;-81
2023/12/27 14:50:06;;;;;;;9.27;2.43;;;4.00;1.00;;;;;;9794092;30;20244;-82
2023/12/27 14:55:27;;;;;;;12.70;2.70;;;4.00;1.00;;;;;;9793676;30;20212;-81
2023/12/27 15:00:49;;;;;;;15.80;4.00;;;4.00;1.00;;;;;;9805641;30;20263;-81
2023/12/27 15:06:10;;;;;;;10.93;2.53;;;4.00;1.00;;;;;;9805772;30;20311;-80
2023/12/27 15:11:32;;;;;;;13.27;2.97;;;4.00;1.00;;;;;;9818522;30;20231;-91
2023/12/27 15:16:54;;;;;;;12.87;2.50;;;3.90;1.00;;;;;;9815690;30;20216;-82
2023/12/27 15:22:15;;;;;;;13.43;2.90;;;3.90;1.00;;;;;;9805178;30;20206;-86
2023/12/27 15:27:39;;;;;;;18.93;2.67;;;3.90;1.00;;;;;;9817812;30;20269;-81
2023/12/27 15:33:00;;;;;;;12.00;3.10;;;3.90;1.00;;;;;;9816360;30;20514;-81
2023/12/27 15:38:21;;;;;;;8.57;2.43;;;3.80;1.00;;;;;;9817548;30;20299;-86
2023/12/27 15:43:43;;;;;;;11.47;3.20;;;3.70;1.00;;;;;;9817422;30;20297;-81
2023/12/27 15:49:04;;;;;;;13.47;4.20;;;3.70;1.00;;;;;;9818309;30;20308;-81
2023/12/27 15:54:25;;;;;;;11.43;2.97;;;3.60;1.00;;;;;;9804777;30;20207;-80
2023/12/27 15:59:46;;;;;;;13.27;4.13;;;3.50;99.90;;;;;;9812554;30;20231;-83
2023/12/27 16:05:08;;;;;;;17.73;4.73;;;3.40;1.00;;;;;;9789731;30;20250;-81
2023/12/27 16:10:29;;;;;;;18.97;4.70;;;3.30;1.00;;;;;;9805640;30;20231;-81
2023/12/27 16:15:51;;;;;;;14.87;5.40;;;3.20;1.00;;;;;;9803832;30;20534;-80
2023/12/27 16:21:14;;;;;;;11.67;4.90;;;3.20;1.00;;;;;;9782932;30;20210;-80
2023/12/27 16:26:36;;;;;;;17.13;5.50;;;3.20;1.00;;;;;;9756153;30;20242;-81
2023/12/27 16:31:57;;;;;;;14.03;5.63;;;3.20;1.00;;;;;;9816800;30;20403;-81
2023/12/27 16:37:19;;;;;;;24.13;8.13;;;3.20;1.00;;;;;;9817606;30;20220;-89
2023/12/27 16:42:46;;;;;;;46.37;17.93;;;3.10;1.00;;;;;;9811275;30;20223;-85
2023/12/27 16:48:07;;;;;;;49.90;18.87;;;3.10;1.00;;;;;;9826650;30;20277;-86
2023/12/27 16:53:29;;;;;;;117.43;38.23;;;3.00;1.00;;;;;;9813896;30;20582;-81
2023/12/27 16:58:51;;;;;;;102.67;32.90;;;3.00;1.00;;;;;;9811427;30;20205;-81
2023/12/27 17:04:12;;;;;;;82.17;26.43;;;2.90;1.00;;;;;;9822520;30;20250;-81
2023/12/27 17:09:34;;;;;;;84.63;27.03;;;2.80;1.00;;;;;;9809754;30;20415;-78
2023/12/27 17:14:55;;;;;;;49.27;19.67;;;2.70;1.00;;;;;;9823369;30;20200;-86
2023/12/27 17:20:16;;;;;;;50.13;18.03;;;2.60;1.00;;;;;;9817766;30;20201;-79
2023/12/27 17:25:40;;;;;;;37.17;15.93;;;2.50;1.00;;;;;;9810358;30;20239;-80
2023/12/27 17:31:01;;;;;;;39.30;16.97;;;2.40;99.90;;;;;;9822530;30;20200;-78
2023/12/27 17:36:22;;;;;;;40.40;17.13;;;2.40;99.90;;;;;;9810837;30;20200;-80
2023/12/27 17:41:44;;;;;;;29.20;13.10;;;2.30;99.90;;;;;;9786094;30;20255;-80
2023/12/27 17:47:05;;;;;;;29.03;11.63;;;2.20;99.90;;;;;;9784563;30;20302;-82
2023/12/27 17:52:28;;;;;;;32.87;14.40;;;2.10;1.00;;;;;;9771591;30;20256;-82
2023/12/27 17:57:50;;;;;;;111.23;38.57;;;2.10;20.50;;;;;;9792709;30;20287;-79
2023/12/27 18:03:12;;;;;;;107.87;40.37;;;2.10;1.00;;;;;;9807355;30;20306;-83
2023/12/27 18:08:36;;;;;;;78.60;31.73;;;2.10;99.90;;;;;;9806513;30;20216;-79
2023/12/27 18:13:58;;;;;;;79.00;31.70;;;2.00;1.00;;;;;;9807210;30;20494;-80
2023/12/27 18:19:19;;;;;;;93.27;40.33;;;2.00;1.00;;;;;;9806766;30;20220;-83
2023/12/27 18:24:41;;;;;;;95.70;41.13;;;1.90;8.40;;;;;;9819737;30;20280;-80
2023/12/27 18:30:03;;;;;;;100.77;48.10;;;1.80;1.00;;;;;;9806469;30;20231;-80
2023/12/27 18:35:24;;;;;;;105.77;49.93;;;1.80;99.90;;;;;;9806381;30;20207;-80
2023/12/27 18:40:46;;;;;;;119.43;50.80;;;1.70;99.90;;;;;;9806372;30;20212;-79
2023/12/27 18:46:07;;;;;;;114.83;52.40;;;1.70;99.90;;;;;;9806611;30;20246;-80
2023/12/27 18:51:28;;;;;;;168.40;66.57;;;1.60;1.00;;;;;;9805436;30;20682;-80
2023/12/27 18:56:49;;;;;;;167.47;62.70;;;1.60;66.10;;;;;;9805276;30;20215;-81
2023/12/27 19:02:11;;;;;;;89.03;38.07;;;1.60;99.90;;;;;;9805776;30;20497;-81
2023/12/27 19:07:32;;;;;;;103.57;42.00;;;1.60;51.50;;;;;;9817629;30;20236;-82
2023/12/27 19:12:54;;;;;;;89.23;35.23;;;1.50;1.00;;;;;;9805465;30;20207;-80
2023/12/27 19:18:16;;;;;;;76.27;35.60;;;1.40;99.90;;;;;;9805347;30;20440;-86
2023/12/27 19:23:38;;;;;;;66.47;29.67;;;1.30;1.00;;;;;;9800856;30;20248;-79
2023/12/27 19:28:58;;;;;;;73.20;31.70;;;1.30;99.90;;;;;;9792740;30;20207;-79
2023/12/27 19:34:20;;;;;;;74.97;33.83;;;1.30;60.50;;;;;;9805011;30;20212;-81
2023/12/27 19:39:41;;;;;;;135.27;56.90;;;1.30;99.90;;;;;;9817478;30;20203;-82
2023/12/27 19:45:03;;;;;;;140.67;64.13;;;1.40;1.00;;;;;;9804492;30;20239;-83
2023/12/27 19:50:24;;;;;;;136.50;67.97;;;1.40;1.00;;;;;;9816160;30;20240;-80
2023/12/27 19:55:47;;;;;;;134.60;62.70;;;1.40;1.00;;;;;;9816528;30;20566;-81
2023/12/27 20:01:08;;;;;;;118.10;53.63;;;1.30;1.00;;;;;;9791595;30;20204;-85
2023/12/27 20:06:29;;;;;;;111.50;48.97;;;1.40;99.90;;;;;;9817951;30;20239;-83
2023/12/27 20:11:50;;;;;;;94.90;40.70;;;1.40;99.90;;;;;;9816655;30;20397;-89
2023/12/27 20:17:13;;;;;;;71.43;33.20;;;1.40;1.00;;;;;;9816533;30;20218;-84
2023/12/27 20:22:34;;;;;;;98.50;42.70;;;1.40;99.90;;;;;;9811155;30;20227;-83
2023/12/27 20:27:57;;;;;;;80.73;36.10;;;1.50;99.90;;;;;;9810704;30;20207;-82
2023/12/27 20:33:18;;;;;;;80.10;32.77;;;1.50;1.00;;;;;;9810342;30;20269;-85
2023/12/27 20:38:41;;;;;;;69.07;32.27;;;1.50;99.90;;;;;;9823109;30;20211;-83
2023/12/27 20:44:03;;;;;;;49.70;22.23;;;1.50;1.00;;;;;;9798212;30;20297;-80
2023/12/27 20:49:27;;;;;;;36.00;15.70;;;1.50;1.00;;;;;;9810485;30;20570;-85
2023/12/27 20:54:48;;;;;;;28.30;14.00;;;1.50;99.90;;;;;;9809151;30;20295;-80
2023/12/27 21:00:10;;;;;;;38.47;17.53;;;1.60;98.00;;;;;;9774243;30;20254;-81
2023/12/27 21:05:31;;;;;;;49.90;21.43;;;1.60;1.00;;;;;;9818957;30;20239;-80
2023/12/27 21:10:53;;;;;;;41.57;18.03;;;1.70;99.90;;;;;;9821949;30;20210;-88
2023/12/27 21:16:23;;;;;;;58.53;23.70;;;1.80;70.20;;;;;;9821917;30;20457;-85
2023/12/27 21:21:44;;;;;;;66.00;27.73;;;1.70;1.00;;;;;;9809144;30;20286;-82
2023/12/27 21:27:05;;;;;;;75.67;30.07;;;1.60;1.00;;;;;;9817514;30;20315;-81
2023/12/27 21:32:27;;;;;;;80.70;30.23;;;1.60;99.90;;;;;;9809084;30;20230;-86
2023/12/27 21:37:49;;;;;;;64.00;23.43;;;1.60;99.90;;;;;;9820686;30;20211;-83
2023/12/27 21:43:11;;;;;;;44.97;15.93;;;1.60;99.90;;;;;;9808641;30;20233;-86
2023/12/27 21:48:32;;;;;;;22.27;9.23;;;1.60;1.00;;;;;;9808402;30;20306;-81
2023/12/27 21:53:54;;;;;;;21.73;9.30;;;1.60;1.00;;;;;;9819946;30;20200;-81
2023/12/27 21:59:16;;;;;;;58.13;23.93;;;1.60;1.00;;;;;;9795879;30;20269;-80
2023/12/27 22:04:37;;;;;;;62.23;22.40;;;1.70;1.00;;;;;;9807376;30;20241;-80
2023/12/27 22:09:58;;;;;;;34.90;13.07;;;1.70;99.90;;;;;;9807535;30;20207;-82
2023/12/27 22:15:19;;;;;;;29.03;12.10;;;1.70;1.00;;;;;;9807249;30;20215;-81
2023/12/27 22:20:41;;;;;;;27.17;13.70;;;1.70;1.00;;;;;;9820190;30;20262;-82
2023/12/27 22:26:03;;;;;;;30.23;14.00;;;1.70;1.00;;;;;;9794493;30;20243;-85
2023/12/27 22:31:24;;;;;;;52.40;18.90;;;1.80;1.00;;;;;;9795007;30;20211;-82
2023/12/27 22:36:45;;;;;;;56.53;21.33;;;1.70;1.00;;;;;;9807061;30;20294;-84
2023/12/27 22:42:07;;;;;;;36.57;17.00;;;1.70;99.90;;;;;;9806982;30;20435;-83
2023/12/27 22:47:28;;;;;;;33.63;14.20;;;1.60;1.00;;;;;;9806714;30;20440;-80
2023/12/27 22:52:50;;;;;;;29.20;11.17;;;1.60;1.00;;;;;;9806596;30;20199;-84
2023/12/27 22:58:11;;;;;;;24.03;11.53;;;1.60;1.00;;;;;;9794018;30;20264;-86
2023/12/27 23:03:34;;;;;;;27.87;12.83;;;1.60;99.90;;;;;;9819332;30;20297;-87
2023/12/27 23:08:55;;;;;;;22.63;9.43;;;1.60;99.90;;;;;;9793946;30;20218;-83
2023/12/27 23:14:17;;;;;;;21.47;9.07;;;1.60;99.90;;;;;;9805274;30;20270;-81
2023/12/27 23:19:38;;;;;;;18.40;9.27;;;1.60;1.00;;;;;;9817802;30;20437;-82
2023/12/27 23:25:00;;;;;;;20.37;10.17;;;1.60;1.00;;;;;;9801145;30;20235;-81
2023/12/27 23:30:21;;;;;;;22.67;11.93;;;1.60;1.00;;;;;;9817890;30;20294;-81
2023/12/27 23:35:42;;;;;;;28.30;10.77;;;1.50;1.00;;;;;;9804978;30;20223;-85
2023/12/27 23:41:04;;;;;;;27.83;11.03;;;1.60;1.00;;;;;;9817393;30;20202;-84
2023/12/27 23:46:25;;;;;;;24.60;12.07;;;1.60;1.00;;;;;;9804710;30;20254;-83
2023/12/27 23:51:46;;;;;;;30.13;13.07;;;1.60;1.00;;;;;;9793980;30;20313;-81
2023/12/27 23:57:08;;;;;;;22.70;10.43;;;1.60;1.00;;;;;;9810850;30;20444;-80
